New Braintree, MA (01531)

8:50 PM EST on December 02, 2016 (GMT -0500)
pine street | | Change Station

Elev 587 ft 42.35 °N, 72.14 °W | Updated 5 seconds ago

Clear
Clear
39.0 °F
Feels Like 39 °F
N
0.2
Wind Variable Wind from West
Gusts 2.5 mph

Today
High -- | Low -- °F
--% Chance of Precip.
Yesterday
High -- | Low -- °F
Precip. -- in
Pressure 29.75 in
Visibility 10.0 miles
Clouds Clear
Windchill 39 °F
Dew Point 27 °F
Humidity 62%
Rainfall 0.00 in
Snow Depth Not available.
6:59 AM 4:16 PM
Waxing Crescent, 11% visible
METAR KORH 030054Z 26012KT 10SM CLR 03/M03 A2973 RMK AO2 SLP075 T00331028
Pressure 29.75 in
Visibility 10.0 miles
Clouds Clear
Windchill 39 °F
Dew Point 27 °F
Humidity 62%
Rainfall 0.00 in
Snow Depth Not available.
6:59 AM 4:16 PM
Waxing Crescent, 11% visible
METAR KORH 030054Z 26012KT 10SM CLR 03/M03 A2973 RMK AO2 SLP075 T00331028

10-Day Weather Forecast

Almanac

Astronomy

Dec. 02, 2016 Rise Set
Actual Time
Civil Twilight
Nautical Twilight
Astronomical Twilight
Moon
Length of Visible Light
Length of Day
Tomorrow will be .
, % of the Moon is Illuminated

Today's Extremes

State Highs State Lows

Community

WunderPhotos

Upload Photos

1,955,392 photos uploaded!

WunderBlog® & News

Nearby

Air Quality

  Air Quality AQ Index Pollutant
Not available.

Snow Depth

Station Depth Elevation

Earthquake Activity

City Distance Mag. Time & Date
Minimum magnitude displayed is 2.5.

Coastal Water Temperatures

Place Temperature

Stations

Nearby Weather Stations

Station Location Temp. Windchill Dew Point Humidity Wind Precip. Elev Updated Type
                   

Watches & Warnings

There are currently no watches in effect.